sensor_id;sensor_type;location;lat;lon;timestamp;pressure;altitude;pressure_sealevel;temperature;humidity
19286;BME280;9776;50.798;6.430;2023-05-23T00:02:16;100400.56;;;17.84;68.51
19286;BME280;9776;50.798;6.430;2023-05-23T00:04:43;100394.22;;;17.85;68.89
19286;BME280;9776;50.798;6.430;2023-05-23T00:07:09;100398.78;;;17.91;68.65
19286;BME280;9776;50.798;6.430;2023-05-23T00:09:36;100397.34;;;17.95;68.72
19286;BME280;9776;50.798;6.430;2023-05-23T00:12:03;100396.34;;;17.96;68.42
19286;BME280;9776;50.798;6.430;2023-05-23T00:14:31;100395.34;;;17.97;68.73
19286;BME280;9776;50.798;6.430;2023-05-23T00:16:58;100396.19;;;18.04;68.50
19286;BME280;9776;50.798;6.430;2023-05-23T00:19:27;100395.56;;;18.02;68.31
19286;BME280;9776;50.798;6.430;2023-05-23T00:21:53;100395.97;;;17.99;68.50
19286;BME280;9776;50.798;6.430;2023-05-23T00:24:23;100393.53;;;18.04;68.42
19286;BME280;9776;50.798;6.430;2023-05-23T00:26:50;100387.59;;;18.09;68.20
19286;BME280;9776;50.798;6.430;2023-05-23T00:29:16;100392.34;;;18.13;68.05
19286;BME280;9776;50.798;6.430;2023-05-23T00:31:44;100388.81;;;18.06;67.86
19286;BME280;9776;50.798;6.430;2023-05-23T00:34:11;100400.69;;;17.97;68.17
19286;BME280;9776;50.798;6.430;2023-05-23T00:36:39;100400.84;;;17.96;68.00
19286;BME280;9776;50.798;6.430;2023-05-23T00:39:08;100394.28;;;17.98;68.11
19286;BME280;9776;50.798;6.430;2023-05-23T00:41:41;100395.34;;;17.97;67.66
19286;BME280;9776;50.798;6.430;2023-05-23T00:44:08;100394.06;;;17.93;67.97
19286;BME280;9776;50.798;6.430;2023-05-23T00:46:35;100401.47;;;17.91;67.92
19286;BME280;9776;50.798;6.430;2023-05-23T00:49:02;100396.50;;;17.88;68.09
19286;BME280;9776;50.798;6.430;2023-05-23T00:51:29;100394.22;;;17.85;68.23
19286;BME280;9776;50.798;6.430;2023-05-23T00:53:57;100391.31;;;17.80;67.97
19286;BME280;9776;50.798;6.430;2023-05-23T00:56:25;100388.00;;;17.78;67.99
19286;BME280;9776;50.798;6.430;2023-05-23T00:58:53;100386.38;;;17.77;67.91
19286;BME280;9776;50.798;6.430;2023-05-23T01:01:19;100391.44;;;17.72;67.82
19286;BME280;9776;50.798;6.430;2023-05-23T01:03:46;100398.19;;;17.68;68.01
19286;BME280;9776;50.798;6.430;2023-05-23T01:06:15;100382.97;;;17.62;68.10
19286;BME280;9776;50.798;6.430;2023-05-23T01:08:41;100393.25;;;17.65;68.10
19286;BME280;9776;50.798;6.430;2023-05-23T01:11:16;100393.63;;;17.62;68.11
19286;BME280;9776;50.798;6.430;2023-05-23T01:13:51;100398.44;;;17.52;68.40
19286;BME280;9776;50.798;6.430;2023-05-23T01:16:28;100403.28;;;17.42;68.60
19286;BME280;9776;50.798;6.430;2023-05-23T01:19:03;100402.34;;;17.28;68.88
19286;BME280;9776;50.798;6.430;2023-05-23T01:21:36;100404.34;;;17.26;68.82
19286;BME280;9776;50.798;6.430;2023-05-23T01:24:31;100401.00;;;17.18;69.24
19286;BME280;9776;50.798;6.430;2023-05-23T01:27:07;100401.06;;;17.24;69.26
19286;BME280;9776;50.798;6.430;2023-05-23T01:29:44;100404.34;;;17.26;69.31
19286;BME280;9776;50.798;6.430;2023-05-23T01:32:13;100405.19;;;17.27;69.10
19286;BME280;9776;50.798;6.430;2023-05-23T01:34:41;100405.38;;;17.25;69.41
19286;BME280;9776;50.798;6.430;2023-05-23T01:37:09;100395.66;;;17.18;69.84
19286;BME280;9776;50.798;6.430;2023-05-23T01:39:39;100400.16;;;17.17;69.79
19286;BME280;9776;50.798;6.430;2023-05-23T01:42:06;100407.91;;;17.12;69.76
19286;BME280;9776;50.798;6.430;2023-05-23T01:44:34;100411.16;;;17.08;70.06
19286;BME280;9776;50.798;6.430;2023-05-23T01:47:04;100407.41;;;17.02;69.99
19286;BME280;9776;50.798;6.430;2023-05-23T01:49:32;100413.13;;;16.99;70.04
19286;BME280;9776;50.798;6.430;2023-05-23T01:52:01;100412.47;;;16.97;70.24
19286;BME280;9776;50.798;6.430;2023-05-23T01:54:28;100421.28;;;16.97;69.98
19286;BME280;9776;50.798;6.430;2023-05-23T01:56:56;100418.25;;;17.00;69.99
19286;BME280;9776;50.798;6.430;2023-05-23T01:59:24;100425.78;;;16.97;69.59
19286;BME280;9776;50.798;6.430;2023-05-23T02:01:50;100426.63;;;16.97;69.68
19286;BME280;9776;50.798;6.430;2023-05-23T02:04:19;100432.69;;;16.91;69.57
19286;BME280;9776;50.798;6.430;2023-05-23T02:06:46;100431.44;;;16.87;69.51
19286;BME280;9776;50.798;6.430;2023-05-23T02:09:13;100441.28;;;16.87;69.60
19286;BME280;9776;50.798;6.430;2023-05-23T02:11:40;100444.13;;;16.85;69.68
19286;BME280;9776;50.798;6.430;2023-05-23T02:14:06;100450.28;;;16.86;69.47
19286;BME280;9776;50.798;6.430;2023-05-23T02:16:33;100454.16;;;16.83;69.14
19286;BME280;9776;50.798;6.430;2023-05-23T02:19:00;100450.66;;;16.83;69.09
19286;BME280;9776;50.798;6.430;2023-05-23T02:21:29;100458.75;;;16.75;69.26
19286;BME280;9776;50.798;6.430;2023-05-23T02:23:56;100455.94;;;16.76;69.46
19286;BME280;9776;50.798;6.430;2023-05-23T02:26:23;100456.09;;;16.75;69.28
19286;BME280;9776;50.798;6.430;2023-05-23T02:28:51;100455.94;;;16.76;68.81
19286;BME280;9776;50.798;6.430;2023-05-23T02:31:18;100458.38;;;16.78;68.92
19286;BME280;9776;50.798;6.430;2023-05-23T02:33:45;100460.44;;;16.76;68.47
19286;BME280;9776;50.798;6.430;2023-05-23T02:36:12;100461.25;;;16.76;68.53
19286;BME280;9776;50.798;6.430;2023-05-23T02:38:40;100461.78;;;16.86;67.82
19286;BME280;9776;50.798;6.430;2023-05-23T02:41:06;100465.66;;;16.84;67.41
19286;BME280;9776;50.798;6.430;2023-05-23T02:43:33;100464.19;;;16.81;67.37
19286;BME280;9776;50.798;6.430;2023-05-23T02:46:00;100471.53;;;16.79;67.10
19286;BME280;9776;50.798;6.430;2023-05-23T02:48:26;100469.06;;;16.78;67.19
19286;BME280;9776;50.798;6.430;2023-05-23T02:50:53;100459.59;;;16.75;67.29
19286;BME280;9776;50.798;6.430;2023-05-23T02:53:19;100464.09;;;16.75;67.14
19286;BME280;9776;50.798;6.430;2023-05-23T02:55:48;100464.56;;;16.78;67.04
19286;BME280;9776;50.798;6.430;2023-05-23T02:58:14;100464.94;;;16.75;67.14
19286;BME280;9776;50.798;6.430;2023-05-23T03:00:41;100471.53;;;16.79;67.07
19286;BME280;9776;50.798;6.430;2023-05-23T03:03:08;100461.25;;;16.76;67.12
19286;BME280;9776;50.798;6.430;2023-05-23T03:05:36;100464.47;;;16.72;67.15
19286;BME280;9776;50.798;6.430;2023-05-23T03:08:02;100469.06;;;16.63;67.57
19286;BME280;9776;50.798;6.430;2023-05-23T03:10:29;100469.81;;;16.57;67.78
19286;BME280;9776;50.798;6.430;2023-05-23T03:12:57;100472.47;;;16.57;68.06
19286;BME280;9776;50.798;6.430;2023-05-23T03:15:24;100472.16;;;16.52;67.99
19286;BME280;9776;50.798;6.430;2023-05-23T03:17:50;100478.22;;;16.46;68.29
19286;BME280;9776;50.798;6.430;2023-05-23T03:20:17;100474.28;;;16.42;68.62
19286;BME280;9776;50.798;6.430;2023-05-23T03:22:44;100477.97;;;16.41;68.75
19286;BME280;9776;50.798;6.430;2023-05-23T03:25:10;100480.44;;;16.42;68.53
19286;BME280;9776;50.798;6.430;2023-05-23T03:27:37;100492.28;;;16.40;68.77
19286;BME280;9776;50.798;6.430;2023-05-23T03:30:06;100498.28;;;16.42;68.88
19286;BME280;9776;50.798;6.430;2023-05-23T03:32:33;100494.94;;;16.40;69.07
19286;BME280;9776;50.798;6.430;2023-05-23T03:35:00;100493.66;;;16.36;69.18
19286;BME280;9776;50.798;6.430;2023-05-23T03:37:26;100499.72;;;16.30;69.54
19286;BME280;9776;50.798;6.430;2023-05-23T03:39:53;100491.63;;;16.23;69.41
19286;BME280;9776;50.798;6.430;2023-05-23T03:42:19;100495.22;;;16.16;69.65
19286;BME280;9776;50.798;6.430;2023-05-23T03:44:46;100492.53;;;16.16;69.78
19286;BME280;9776;50.798;6.430;2023-05-23T03:47:14;100506.31;;;16.19;69.58
19286;BME280;9776;50.798;6.430;2023-05-23T03:49:41;100500.34;;;16.17;69.69
19286;BME280;9776;50.798;6.430;2023-05-23T03:52:09;100510.81;;;16.19;69.82
19286;BME280;9776;50.798;6.430;2023-05-23T03:54:36;100508.06;;;16.12;69.66
19286;BME280;9776;50.798;6.430;2023-05-23T03:57:03;100503.38;;;16.14;69.79
19286;BME280;9776;50.798;6.430;2023-05-23T03:59:29;100507.34;;;16.18;69.60
19286;BME280;9776;50.798;6.430;2023-05-23T04:01:56;100511.19;;;16.16;69.43
19286;BME280;9776;50.798;6.430;2023-05-23T04:04:24;100511.19;;;16.16;69.44
19286;BME280;9776;50.798;6.430;2023-05-23T04:06:51;100516.50;;;16.16;69.74
19286;BME280;9776;50.798;6.430;2023-05-23T04:09:18;100519.34;;;16.14;69.37
19286;BME280;9776;50.798;6.430;2023-05-23T04:11:44;100519.22;;;16.08;69.48
19286;BME280;9776;50.798;6.430;2023-05-23T04:14:11;100517.59;;;16.07;69.51
19286;BME280;9776;50.798;6.430;2023-05-23T04:16:38;100518.59;;;16.06;69.90
19286;BME280;9776;50.798;6.430;2023-05-23T04:19:06;100517.41;;;16.08;69.60
19286;BME280;9776;50.798;6.430;2023-05-23T04:21:34;100520.72;;;16.10;69.71
19286;BME280;9776;50.798;6.430;2023-05-23T04:24:01;100531.91;;;16.06;69.74
19286;BME280;9776;50.798;6.430;2023-05-23T04:26:27;100537.22;;;16.06;69.91
19286;BME280;9776;50.798;6.430;2023-05-23T04:28:54;100526.41;;;16.07;69.89
19286;BME280;9776;50.798;6.430;2023-05-23T04:31:21;100517.94;;;16.04;70.17
19286;BME280;9776;50.798;6.430;2023-05-23T04:33:47;100510.97;;;16.03;69.96
19286;BME280;9776;50.798;6.430;2023-05-23T04:36:14;100512.78;;;16.02;70.27
19286;BME280;9776;50.798;6.430;2023-05-23T04:38:42;100517.75;;;16.05;70.10
19286;BME280;9776;50.798;6.430;2023-05-23T04:41:09;100514.16;;;15.98;70.36
19286;BME280;9776;50.798;6.430;2023-05-23T04:43:37;100520.97;;;16.01;70.56
19286;BME280;9776;50.798;6.430;2023-05-23T04:46:07;100516.84;;;15.98;70.56
19286;BME280;9776;50.798;6.430;2023-05-23T04:48:34;100520.97;;;16.01;70.48
19286;BME280;9776;50.798;6.430;2023-05-23T04:51:01;100518.31;;;16.01;70.38
19286;BME280;9776;50.798;6.430;2023-05-23T04:53:32;100516.75;;;16.06;70.39
19286;BME280;9776;50.798;6.430;2023-05-23T04:56:00;100518.44;;;16.07;70.13
19286;BME280;9776;50.798;6.430;2023-05-23T04:58:27;100522.56;;;16.10;70.06
19286;BME280;9776;50.798;6.430;2023-05-23T05:00:53;100521.88;;;16.08;70.18
19286;BME280;9776;50.798;6.430;2023-05-23T05:03:20;100526.06;;;16.10;70.27
19286;BME280;9776;50.798;6.430;2023-05-23T05:05:49;100526.22;;;16.09;70.01
19286;BME280;9776;50.798;6.430;2023-05-23T05:08:16;100530.19;;;16.13;69.88
19286;BME280;9776;50.798;6.430;2023-05-23T05:10:45;100529.16;;;16.14;70.07
19286;BME280;9776;50.798;6.430;2023-05-23T05:13:13;100529.88;;;16.08;69.69
19286;BME280;9776;50.798;6.430;2023-05-23T05:15:40;100535.19;;;16.08;69.89
19286;BME280;9776;50.798;6.430;2023-05-23T05:18:06;100537.50;;;16.11;69.58
19286;BME280;9776;50.798;6.430;2023-05-23T05:20:33;100544.97;;;16.15;69.45
19286;BME280;9776;50.798;6.430;2023-05-23T05:23:00;100534.31;;;16.15;69.66
19286;BME280;9776;50.798;6.430;2023-05-23T05:25:27;100542.31;;;16.15;69.42
19286;BME280;9776;50.798;6.430;2023-05-23T05:27:56;100533.28;;;16.16;69.14
19286;BME280;9776;50.798;6.430;2023-05-23T05:30:24;100543.22;;;16.22;69.02
19286;BME280;9776;50.798;6.430;2023-05-23T05:32:51;100538.72;;;16.23;69.30
19286;BME280;9776;50.798;6.430;2023-05-23T05:35:17;100546.19;;;16.27;69.16
19286;BME280;9776;50.798;6.430;2023-05-23T05:37:44;100550.50;;;16.28;68.96
19286;BME280;9776;50.798;6.430;2023-05-23T05:40:11;100546.84;;;16.29;68.86
19286;BME280;9776;50.798;6.430;2023-05-23T05:42:38;100550.34;;;16.30;69.14
19286;BME280;9776;50.798;6.430;2023-05-23T05:45:06;100559.69;;;16.26;68.80
19286;BME280;9776;50.798;6.430;2023-05-23T05:47:34;100554.00;;;16.29;68.67
19286;BME280;9776;50.798;6.430;2023-05-23T05:50:03;100560.50;;;16.26;68.74
19286;BME280;9776;50.798;6.430;2023-05-23T05:52:30;100561.00;;;16.30;68.63
19286;BME280;9776;50.798;6.430;2023-05-23T05:54:58;100561.81;;;16.30;68.85
19286;BME280;9776;50.798;6.430;2023-05-23T05:57:25;100557.31;;;16.31;68.41
19286;BME280;9776;50.798;6.430;2023-05-23T05:59:52;100572.00;;;16.27;68.75
19286;BME280;9776;50.798;6.430;2023-05-23T06:02:18;100565.00;;;16.26;68.38
19286;BME280;9776;50.798;6.430;2023-05-23T06:04:47;100561.72;;;16.24;68.79
19286;BME280;9776;50.798;6.430;2023-05-23T06:07:13;100581.19;;;16.24;68.50
19286;BME280;9776;50.798;6.430;2023-05-23T06:09:40;100577.69;;;16.24;68.50
19286;BME280;9776;50.798;6.430;2023-05-23T06:12:07;100563.91;;;16.20;68.42
19286;BME280;9776;50.798;6.430;2023-05-23T06:14:33;100569.41;;;16.19;68.33
19286;BME280;9776;50.798;6.430;2023-05-23T06:17:00;100581.06;;;16.18;68.45
19286;BME280;9776;50.798;6.430;2023-05-23T06:19:27;100569.31;;;16.12;68.55
19286;BME280;9776;50.798;6.430;2023-05-23T06:21:55;100582.06;;;16.17;68.39
19286;BME280;9776;50.798;6.430;2023-05-23T06:24:22;100577.09;;;16.14;68.25
19286;BME280;9776;50.798;6.430;2023-05-23T06:26:48;100582.41;;;16.14;68.52
19286;BME280;9776;50.798;6.430;2023-05-23T06:29:15;100572.78;;;16.13;68.50
19286;BME280;9776;50.798;6.430;2023-05-23T06:31:41;100585.63;;;16.09;68.63
19286;BME280;9776;50.798;6.430;2023-05-23T06:34:08;100585.91;;;16.14;68.36
19286;BME280;9776;50.798;6.430;2023-05-23T06:36:35;100586.19;;;16.19;68.33
19286;BME280;9776;50.798;6.430;2023-05-23T06:39:03;100581.19;;;16.24;68.07
19286;BME280;9776;50.798;6.430;2023-05-23T06:41:29;100590.28;;;16.30;68.23
19286;BME280;9776;50.798;6.430;2023-05-23T06:43:56;100595.91;;;16.35;67.90
19286;BME280;9776;50.798;6.430;2023-05-23T06:46:22;100597.66;;;16.42;68.13
19286;BME280;9776;50.798;6.430;2023-05-23T06:48:49;100600.91;;;16.53;67.82
19286;BME280;9776;50.798;6.430;2023-05-23T06:51:16;100600.75;;;16.54;67.78
19286;BME280;9776;50.798;6.430;2023-05-23T06:53:42;100609.72;;;16.53;67.84
19286;BME280;9776;50.798;6.430;2023-05-23T06:56:10;100610.91;;;16.51;67.82
19286;BME280;9776;50.798;6.430;2023-05-23T06:58:37;100614.59;;;16.50;67.74
19286;BME280;9776;50.798;6.430;2023-05-23T07:01:04;100617.59;;;16.46;67.63
19286;BME280;9776;50.798;6.430;2023-05-23T07:03:30;100615.31;;;16.43;68.02
19286;BME280;9776;50.798;6.430;2023-05-23T07:05:57;100622.09;;;16.46;67.72
19286;BME280;9776;50.798;6.430;2023-05-23T07:08:24;100626.78;;;16.44;67.75
19286;BME280;9776;50.798;6.430;2023-05-23T07:10:50;100628.06;;;16.48;67.66
19286;BME280;9776;50.798;6.430;2023-05-23T07:13:18;100635.78;;;16.43;67.69
19286;BME280;9776;50.798;6.430;2023-05-23T07:15:45;100632.66;;;16.39;67.89
19286;BME280;9776;50.798;6.430;2023-05-23T07:18:11;100631.16;;;16.37;68.28
19286;BME280;9776;50.798;6.430;2023-05-23T07:20:38;100623.38;;;16.35;67.95
19286;BME280;9776;50.798;6.430;2023-05-23T07:23:05;100634.03;;;16.35;68.42
19286;BME280;9776;50.798;6.430;2023-05-23T07:25:31;100640.19;;;16.36;68.26
19286;BME280;9776;50.798;6.430;2023-05-23T07:27:58;100628.50;;;16.37;68.25
19286;BME280;9776;50.798;6.430;2023-05-23T07:30:26;100631.53;;;16.34;68.46
19286;BME280;9776;50.798;6.430;2023-05-23T07:32:53;100637.41;;;16.29;68.39
19286;BME280;9776;50.798;6.430;2023-05-23T07:35:19;100640.72;;;16.31;68.41
19286;BME280;9776;50.798;6.430;2023-05-23T07:37:50;100633.56;;;16.32;68.47
19286;BME280;9776;50.798;6.430;2023-05-23T07:40:17;100634.75;;;16.29;68.47
19286;BME280;9776;50.798;6.430;2023-05-23T07:42:44;100640.06;;;16.29;68.51
19286;BME280;9776;50.798;6.430;2023-05-23T07:45:12;100638.59;;;16.27;68.56
19286;BME280;9776;50.798;6.430;2023-05-23T07:47:40;100634.53;;;16.31;68.14
19286;BME280;9776;50.798;6.430;2023-05-23T07:50:07;100643.84;;;16.35;68.08
19286;BME280;9776;50.798;6.430;2023-05-23T07:52:34;100640.19;;;16.36;68.37
19286;BME280;9776;50.798;6.430;2023-05-23T07:55:01;100646.31;;;16.36;68.23
19286;BME280;9776;50.798;6.430;2023-05-23T07:57:27;100652.00;;;16.33;68.34
19286;BME280;9776;50.798;6.430;2023-05-23T07:59:54;100651.56;;;16.30;68.49
19286;BME280;9776;50.798;6.430;2023-05-23T08:02:21;100657.59;;;16.24;68.61
19286;BME280;9776;50.798;6.430;2023-05-23T08:04:49;100654.94;;;16.24;68.89
19286;BME280;9776;50.798;6.430;2023-05-23T08:07:17;100655.56;;;16.26;68.87
19286;BME280;9776;50.798;6.430;2023-05-23T08:09:46;100662.09;;;16.23;69.05
19286;BME280;9776;50.798;6.430;2023-05-23T08:12:12;100660.41;;;16.22;68.99
19286;BME280;9776;50.798;6.430;2023-05-23T08:14:39;100665.38;;;16.25;69.06
19286;BME280;9776;50.798;6.430;2023-05-23T08:17:06;100663.91;;;16.23;69.35
19286;BME280;9776;50.798;6.430;2023-05-23T08:19:32;100658.78;;;16.21;69.56
19286;BME280;9776;50.798;6.430;2023-05-23T08:22:01;100669.31;;;16.15;69.80
19286;BME280;9776;50.798;6.430;2023-05-23T08:24:29;100665.66;;;16.16;70.18
19286;BME280;9776;50.798;6.430;2023-05-23T08:26:55;100663.63;;;16.18;69.90
19286;BME280;9776;50.798;6.430;2023-05-23T08:29:23;100667.28;;;16.17;70.02
19286;BME280;9776;50.798;6.430;2023-05-23T08:31:50;100670.63;;;16.19;70.08
19286;BME280;9776;50.798;6.430;2023-05-23T08:34:16;100667.13;;;16.18;70.13
19286;BME280;9776;50.798;6.430;2023-05-23T08:36:43;100674.94;;;16.20;70.44
19286;BME280;9776;50.798;6.430;2023-05-23T08:39:11;100674.28;;;16.18;70.32
19286;BME280;9776;50.798;6.430;2023-05-23T08:41:38;100677.34;;;16.29;70.27
19286;BME280;9776;50.798;6.430;2023-05-23T08:44:04;100683.97;;;16.33;70.27
19286;BME280;9776;50.798;6.430;2023-05-23T08:46:32;100689.31;;;16.33;70.60
19286;BME280;9776;50.798;6.430;2023-05-23T08:48:59;100684.16;;;16.09;70.88
19286;BME280;9776;50.798;6.430;2023-05-23T08:51:26;100684.78;;;15.88;71.37
19286;BME280;9776;50.798;6.430;2023-05-23T08:53:53;100685.00;;;15.79;71.59
19286;BME280;9776;50.798;6.430;2023-05-23T08:56:23;100690.09;;;15.88;71.44
19286;BME280;9776;50.798;6.430;2023-05-23T08:58:50;100697.69;;;16.00;71.57
19286;BME280;9776;50.798;6.430;2023-05-23T09:01:17;100698.59;;;16.15;71.24
19286;BME280;9776;50.798;6.430;2023-05-23T09:03:45;100700.22;;;16.24;70.55
19286;BME280;9776;50.798;6.430;2023-05-23T09:06:14;100708.72;;;16.19;70.67
19286;BME280;9776;50.798;6.430;2023-05-23T09:08:42;100708.34;;;16.00;71.10
19286;BME280;9776;50.798;6.430;2023-05-23T09:11:10;100710.06;;;15.93;71.12
19286;BME280;9776;50.798;6.430;2023-05-23T09:13:39;100710.06;;;15.93;71.14
19286;BME280;9776;50.798;6.430;2023-05-23T09:16:08;100706.50;;;16.00;70.97
19286;BME280;9776;50.798;6.430;2023-05-23T09:18:36;100717.03;;;15.94;70.79
19286;BME280;9776;50.798;6.430;2023-05-23T09:21:03;100713.28;;;15.80;71.11
19286;BME280;9776;50.798;6.430;2023-05-23T09:23:31;100719.66;;;15.63;71.51
19286;BME280;9776;50.798;6.430;2023-05-23T09:26:01;100730.00;;;15.58;71.49
19286;BME280;9776;50.798;6.430;2023-05-23T09:28:28;100730.34;;;15.55;71.56
19286;BME280;9776;50.798;6.430;2023-05-23T09:31:00;100733.81;;;15.63;71.29
19286;BME280;9776;50.798;6.430;2023-05-23T09:33:38;100735.78;;;15.61;71.47
19286;BME280;9776;50.798;6.430;2023-05-23T09:36:06;100734.59;;;15.72;71.43
19286;BME280;9776;50.798;6.430;2023-05-23T09:38:36;100729.09;;;15.73;71.25
19286;BME280;9776;50.798;6.430;2023-05-23T09:41:03;100727.13;;;15.75;71.07
19286;BME280;9776;50.798;6.430;2023-05-23T09:43:30;100736.88;;;15.83;70.81
19286;BME280;9776;50.798;6.430;2023-05-23T09:46:06;100725.94;;;16.09;69.95
19286;BME280;9776;50.798;6.430;2023-05-23T09:48:32;100731.47;;;16.30;69.57
19286;BME280;9776;50.798;6.430;2023-05-23T09:51:03;100719.50;;;16.48;68.85
19286;BME280;9776;50.798;6.430;2023-05-23T09:53:30;100730.72;;;16.67;68.33
19286;BME280;9776;50.798;6.430;2023-05-23T09:55:58;100725.31;;;17.12;67.32
19286;BME280;9776;50.798;6.430;2023-05-23T09:58:26;100729.13;;;17.62;65.75
19286;BME280;9776;50.798;6.430;2023-05-23T10:00:54;100725.31;;;18.00;64.48
19286;BME280;9776;50.798;6.430;2023-05-23T10:03:26;100736.88;;;18.07;64.03
19286;BME280;9776;50.798;6.430;2023-05-23T10:05:56;100737.72;;;18.07;63.83
19286;BME280;9776;50.798;6.430;2023-05-23T10:08:26;100738.53;;;18.58;61.92
19286;BME280;9776;50.798;6.430;2023-05-23T10:13:55;100737.59;;;20.64;56.50
19286;BME280;9776;50.798;6.430;2023-05-23T10:16:26;100738.34;;;21.69;53.73
19286;BME280;9776;50.798;6.430;2023-05-23T10:18:58;100737.47;;;22.71;50.87
19286;BME280;9776;50.798;6.430;2023-05-23T10:21:30;100738.28;;;24.71;46.63
19286;BME280;9776;50.798;6.430;2023-05-23T10:23:58;100746.59;;;25.57;44.24
19286;BME280;9776;50.798;6.430;2023-05-23T10:26:25;100745.38;;;24.83;45.00
19286;BME280;9776;50.798;6.430;2023-05-23T10:28:53;100743.63;;;24.48;45.52
19286;BME280;9776;50.798;6.430;2023-05-23T10:31:20;100738.72;;;25.44;43.28
19286;BME280;9776;50.798;6.430;2023-05-23T10:33:52;100730.19;;;27.60;39.21
19286;BME280;9776;50.798;6.430;2023-05-23T10:36:27;100735.72;;;28.62;36.84
19286;BME280;9776;50.798;6.430;2023-05-23T10:39:03;100737.41;;;28.14;37.05
19286;BME280;9776;50.798;6.430;2023-05-23T10:41:37;100736.13;;;27.57;37.82
19286;BME280;9776;50.798;6.430;2023-05-23T10:44:11;100738.47;;;27.32;37.87
19286;BME280;9776;50.798;6.430;2023-05-23T10:46:53;100749.59;;;25.84;39.84
19286;BME280;9776;50.798;6.430;2023-05-23T10:49:20;100746.81;;;24.56;42.25
19286;BME280;9776;50.798;6.430;2023-05-23T10:51:49;100744.47;;;23.82;43.16
19286;BME280;9776;50.798;6.430;2023-05-23T10:54:17;100749.06;;;22.96;44.68
19286;BME280;9776;50.798;6.430;2023-05-23T10:56:45;100752.53;;;22.40;45.47
19286;BME280;9776;50.798;6.430;2023-05-23T10:59:19;100744.31;;;22.60;44.60
19286;BME280;9776;50.798;6.430;2023-05-23T11:01:49;100750.56;;;25.43;39.48
19286;BME280;9776;50.798;6.430;2023-05-23T11:04:24;100749.25;;;27.65;35.07
19286;BME280;9776;50.798;6.430;2023-05-23T11:06:52;100750.47;;;29.35;32.42
19286;BME280;9776;50.798;6.430;2023-05-23T11:09:20;100751.53;;;30.68;30.55
19286;BME280;9776;50.798;6.430;2023-05-23T11:11:54;100756.94;;;30.53;30.49
19286;BME280;9776;50.798;6.430;2023-05-23T11:14:49;100741.13;;;31.51;29.06
19286;BME280;9776;50.798;6.430;2023-05-23T11:17:17;100745.31;;;33.19;26.73
19286;BME280;9776;50.798;6.430;2023-05-23T11:20:02;100741.75;;;34.13;25.49
19286;BME280;9776;50.798;6.430;2023-05-23T11:22:33;100738.13;;;35.87;23.77
19286;BME280;9776;50.798;6.430;2023-05-23T11:25:01;100740.66;;;36.91;22.24
19286;BME280;9776;50.798;6.430;2023-05-23T11:27:30;100733.44;;;34.74;24.24
19286;BME280;9776;50.798;6.430;2023-05-23T11:30:03;100742.19;;;32.63;26.63
19286;BME280;9776;50.798;6.430;2023-05-23T11:32:34;100730.13;;;30.04;29.67
19286;BME280;9776;50.798;6.430;2023-05-23T11:35:02;100746.03;;;27.90;32.63
19286;BME280;9776;50.798;6.430;2023-05-23T11:37:29;100747.78;;;26.01;34.66
19286;BME280;9776;50.798;6.430;2023-05-23T11:39:58;100738.06;;;24.72;36.71
19286;BME280;9776;50.798;6.430;2023-05-23T11:42:26;100737.72;;;23.91;38.10
19286;BME280;9776;50.798;6.430;2023-05-23T11:44:53;100742.50;;;23.10;39.51
19286;BME280;9776;50.798;6.430;2023-05-23T11:47:19;100740.19;;;22.26;40.77
19286;BME280;9776;50.798;6.430;2023-05-23T11:49:46;100738.75;;;21.73;41.79
19286;BME280;9776;50.798;6.430;2023-05-23T11:52:13;100742.38;;;21.27;42.60
19286;BME280;9776;50.798;6.430;2023-05-23T11:54:40;100743.59;;;21.05;43.06
19286;BME280;9776;50.798;6.430;2023-05-23T11:57:09;100733.06;;;20.90;43.17
19286;BME280;9776;50.798;6.430;2023-05-23T11:59:36;100750.00;;;20.78;43.45
19286;BME280;9776;50.798;6.430;2023-05-23T12:02:05;100750.41;;;20.68;43.70
19286;BME280;9776;50.798;6.430;2023-05-23T12:04:33;100744.66;;;20.98;43.17
19286;BME280;9776;50.798;6.430;2023-05-23T12:07:03;100747.53;;;21.22;42.73
19286;BME280;9776;50.798;6.430;2023-05-23T12:09:30;100747.13;;;21.25;42.64
19286;BME280;9776;50.798;6.430;2023-05-23T12:11:57;100747.09;;;20.92;43.46
19286;BME280;9776;50.798;6.430;2023-05-23T12:14:27;100753.09;;;20.81;43.79
19286;BME280;9776;50.798;6.430;2023-05-23T12:16:54;100753.69;;;20.57;44.27
19286;BME280;9776;50.798;6.430;2023-05-23T12:19:22;100756.75;;;20.34;44.87
19286;BME280;9776;50.798;6.430;2023-05-23T12:21:48;100754.34;;;20.05;45.26
19286;BME280;9776;50.798;6.430;2023-05-23T12:24:16;100754.28;;;19.92;45.77
19286;BME280;9776;50.798;6.430;2023-05-23T12:26:47;100746.81;;;19.81;45.97
19286;BME280;9776;50.798;6.430;2023-05-23T12:29:14;100754.09;;;19.94;45.98
19286;BME280;9776;50.798;6.430;2023-05-23T12:31:43;100755.28;;;20.25;45.32
19286;BME280;9776;50.798;6.430;2023-05-23T12:34:10;100751.19;;;20.49;44.70
19286;BME280;9776;50.798;6.430;2023-05-23T12:36:37;100754.28;;;20.53;44.81
19286;BME280;9776;50.798;6.430;2023-05-23T12:39:04;100743.44;;;20.13;45.42
19286;BME280;9776;50.798;6.430;2023-05-23T12:41:32;100755.06;;;19.86;46.24
19286;BME280;9776;50.798;6.430;2023-05-23T12:43:58;100750.28;;;19.75;46.62
19286;BME280;9776;50.798;6.430;2023-05-23T12:46:26;100752.22;;;19.88;46.69
19286;BME280;9776;50.798;6.430;2023-05-23T12:48:54;100751.22;;;19.95;46.22
19286;BME280;9776;50.798;6.430;2023-05-23T12:51:21;100752.56;;;19.78;46.42
19286;BME280;9776;50.798;6.430;2023-05-23T12:53:48;100752.97;;;19.75;46.75
19286;BME280;9776;50.798;6.430;2023-05-23T12:56:14;100756.41;;;20.10;45.92
19286;BME280;9776;50.798;6.430;2023-05-23T12:58:41;100753.28;;;20.67;44.78
19286;BME280;9776;50.798;6.430;2023-05-23T13:01:08;100752.72;;;21.11;43.94
19286;BME280;9776;50.798;6.430;2023-05-23T13:03:35;100751.47;;;21.26;43.50
19286;BME280;9776;50.798;6.430;2023-05-23T13:06:03;100755.34;;;21.50;42.87
19286;BME280;9776;50.798;6.430;2023-05-23T13:08:31;100749.47;;;21.79;41.91